Mount Roskill, New Zealand
Current Conditions -  °F | °C
As of 8:30 PM on Monday 20 Oct 2014 (Local Time) from NZAA Reporting Station
Clear Clear  
Wind Chill: 55°   Ceiling: Unl
Heat Index: 55°   Visibility: 6mi
Dew Point: 45°   Wind: 17mph
Humidity: 67%   Direction: 230°SW
Pressure: 30"   Gusts: NA
Location:  36.9°S, 174.74°E
Report Text: NZAA 200830Z AUTO 23015KT 9999 NCD 13/07 Q1016 NOSIG
Loading
Personal Weather Stations






























Interactive Weather Map
Tropical Storm Tracking
New forecast layout! Learn more

10-Day Weather Forecast

Advertisements
Track Severe Weather on mobile